Vendinga, Russia
Current Conditions -  °F | °C
As of 3:30 AM on Saturday 25 Oct 2014 (Local Time) from UUYY Reporting Station
Snow Showers Snow Showers  
Wind Chill: 10°   Ceiling: 6600
Heat Index: 21°   Visibility: 4mi
Dew Point: 14°   Wind: 11mph
Humidity: 74%   Direction: 350°N
Pressure: 30.33"   Gusts: 18mph
Location:  63.45°N, 48°E
Report Text: UUYY 250030Z 35005G08MPS 7000 -SHSN SCT026CB OVC066 M06/M10 Q1027 TEMPO 2000 SHSN 0182//49 RMK QFE761/1015
Loading
Personal Weather Stations






























Interactive Weather Map New forecast layout! Learn more

10-Day Weather Forecast

Advertisements
Track Severe Weather on mobile